createdAt,value
2023-07-22T00:02:05.055Z,27.27
2023-07-22T00:04:32.677Z,27.73
2023-07-22T00:07:00.504Z,23.40
2023-07-22T00:09:28.047Z,23.30
2023-07-22T00:11:55.639Z,25.25
2023-07-22T00:14:23.628Z,22.38
2023-07-22T00:16:51.395Z,25.42
2023-07-22T00:19:21.875Z,23.13
2023-07-22T00:21:50.616Z,24.42
2023-07-22T00:24:18.280Z,25.15
2023-07-22T00:26:50.978Z,21.17
2023-07-22T00:29:18.542Z,22.20
2023-07-22T00:31:46.545Z,23.10
2023-07-22T00:34:14.231Z,23.73
2023-07-22T00:36:42.258Z,25.98
2023-07-22T00:39:10.407Z,23.77
2023-07-22T00:41:38.179Z,24.10
2023-07-22T00:44:06.752Z,20.92
2023-07-22T00:46:34.499Z,25.00
2023-07-22T00:49:02.621Z,24.90
2023-07-22T00:51:30.535Z,21.85
2023-07-22T00:53:58.191Z,26.15
2023-07-22T00:56:26.808Z,23.45
2023-07-22T00:58:54.904Z,24.90
2023-07-22T01:01:23.432Z,23.25
2023-07-22T01:03:52.144Z,28.40
2023-07-22T01:06:19.757Z,23.65
2023-07-22T01:08:47.916Z,26.05
2023-07-22T01:11:16.445Z,29.30
2023-07-22T01:13:44.448Z,24.73
2023-07-22T01:16:12.610Z,23.98
2023-07-22T01:18:44.981Z,36.20
2023-07-22T01:21:14.045Z,32.85
2023-07-22T01:23:43.025Z,37.08
2023-07-22T01:26:10.755Z,31.33
2023-07-22T01:28:38.875Z,35.63
2023-07-22T01:31:06.635Z,33.70
2023-07-22T01:33:34.932Z,28.42
2023-07-22T01:36:03.430Z,29.88
2023-07-22T01:38:32.341Z,33.00
2023-07-22T01:41:02.508Z,35.60
2023-07-22T01:43:30.236Z,31.33
2023-07-22T01:45:57.826Z,34.80
2023-07-22T01:48:25.732Z,32.97
2023-07-22T01:50:55.802Z,30.02
2023-07-22T01:53:23.507Z,27.42
2023-07-22T01:55:57.335Z,31.58
2023-07-22T01:58:25.589Z,36.53
2023-07-22T02:00:53.449Z,29.33
2023-07-22T02:03:21.810Z,34.72
2023-07-22T02:05:49.514Z,39.22
2023-07-22T02:08:16.995Z,29.50
2023-07-22T02:10:44.894Z,35.03
2023-07-22T02:13:14.637Z,32.72
2023-07-22T02:15:53.859Z,37.22
2023-07-22T02:18:33.849Z,42.90
2023-07-22T02:21:01.500Z,35.58
2023-07-22T02:23:29.181Z,33.50
2023-07-22T02:25:57.201Z,39.10
2023-07-22T02:28:25.958Z,41.22
2023-07-22T02:30:54.419Z,35.60
2023-07-22T02:33:23.360Z,38.95
2023-07-22T02:35:53.065Z,37.70
2023-07-22T02:38:20.848Z,37.40
2023-07-22T02:40:51.720Z,37.80
2023-07-22T02:43:19.883Z,33.72
2023-07-22T02:45:47.435Z,32.25
2023-07-22T02:48:16.111Z,31.70
2023-07-22T02:50:44.037Z,34.80
2023-07-22T02:53:11.976Z,32.47
2023-07-22T02:55:40.053Z,39.00
2023-07-22T02:58:07.946Z,38.53
2023-07-22T03:00:40.124Z,36.92
2023-07-22T03:03:09.549Z,39.38
2023-07-22T03:05:37.666Z,36.55
2023-07-22T03:08:05.988Z,37.80
2023-07-22T03:10:34.224Z,36.83
2023-07-22T03:13:04.175Z,35.10
2023-07-22T03:15:32.794Z,34.88
2023-07-22T03:18:00.830Z,38.92
2023-07-22T03:20:29.105Z,39.13
2023-07-22T03:22:56.611Z,37.03
2023-07-22T03:25:24.258Z,41.78
2023-07-22T03:27:51.823Z,37.85
2023-07-22T03:30:20.803Z,35.83
2023-07-22T03:32:49.283Z,36.25
2023-07-22T03:35:17.830Z,36.65
2023-07-22T03:37:47.226Z,45.90
2023-07-22T03:40:20.814Z,38.35
2023-07-22T03:42:49.766Z,30.98
2023-07-22T03:45:17.926Z,33.38
2023-07-22T03:47:47.211Z,35.05
2023-07-22T03:50:16.218Z,34.53
2023-07-22T03:52:44.917Z,34.13
2023-07-22T03:55:14.019Z,34.53
2023-07-22T03:57:41.717Z,34.72
2023-07-22T04:00:13.039Z,33.70
2023-07-22T04:02:41.960Z,35.90
2023-07-22T04:05:10.041Z,33.15
2023-07-22T04:07:38.131Z,41.80
2023-07-22T04:10:06.034Z,37.33
2023-07-22T04:12:34.194Z,36.08
2023-07-22T04:15:02.069Z,40.80
2023-07-22T04:17:30.633Z,35.55
2023-07-22T04:19:58.632Z,37.33
2023-07-22T04:22:26.063Z,32.55
2023-07-22T04:24:54.847Z,36.08
2023-07-22T04:27:22.556Z,35.80
2023-07-22T04:29:50.444Z,35.40
2023-07-22T04:32:18.029Z,44.95
2023-07-22T04:34:45.624Z,38.10
2023-07-22T04:37:14.493Z,40.38
2023-07-22T04:39:42.055Z,41.88
2023-07-22T04:42:10.125Z,40.67
2023-07-22T04:44:37.989Z,41.00
2023-07-22T04:47:07.623Z,39.58
2023-07-22T04:49:35.333Z,39.40
2023-07-22T04:52:03.631Z,36.25
2023-07-22T04:54:31.263Z,40.88
2023-07-22T04:57:01.112Z,39.00
2023-07-22T04:59:29.071Z,40.30
2023-07-22T05:01:56.808Z,41.75
2023-07-22T05:04:25.112Z,45.58
2023-07-22T05:06:54.766Z,36.00
2023-07-22T05:09:22.686Z,38.40
2023-07-22T05:11:50.837Z,39.35
2023-07-22T05:14:19.392Z,40.38
2023-07-22T05:16:47.020Z,40.55
2023-07-22T05:19:14.626Z,35.88
2023-07-22T05:21:42.617Z,37.15
2023-07-22T05:24:11.178Z,43.08
2023-07-22T05:26:38.685Z,39.97
2023-07-22T05:29:06.890Z,37.78
2023-07-22T05:31:34.497Z,39.22
2023-07-22T05:34:02.049Z,35.50
2023-07-22T05:36:29.870Z,38.80
2023-07-22T05:38:57.926Z,38.95
2023-07-22T05:41:25.656Z,39.22
2023-07-22T05:43:53.511Z,40.20
2023-07-22T05:46:22.753Z,38.55
2023-07-22T05:48:50.311Z,38.83
2023-07-22T05:51:18.357Z,40.15
2023-07-22T05:53:45.932Z,38.70
2023-07-22T05:56:14.192Z,37.92
2023-07-22T05:58:41.939Z,32.97
2023-07-22T06:01:10.377Z,34.80
2023-07-22T06:03:38.322Z,35.65
2023-07-22T06:06:05.909Z,36.83
2023-07-22T06:08:33.599Z,37.70
2023-07-22T06:11:01.309Z,33.58
2023-07-22T06:13:29.115Z,39.80
2023-07-22T06:15:57.068Z,38.90
2023-07-22T06:18:24.639Z,35.92
2023-07-22T06:20:52.749Z,36.85
2023-07-22T06:23:20.652Z,32.95
2023-07-22T06:25:48.561Z,38.30
2023-07-22T06:28:16.010Z,36.42
2023-07-22T06:30:43.735Z,33.40
2023-07-22T06:33:11.626Z,36.58
2023-07-22T06:35:39.389Z,34.58
2023-07-22T06:38:07.305Z,34.63
2023-07-22T06:40:34.901Z,36.30
2023-07-22T06:43:02.366Z,34.65
2023-07-22T06:45:30.430Z,36.20
2023-07-22T06:47:58.237Z,33.95
2023-07-22T06:50:26.461Z,34.13
2023-07-22T06:52:54.179Z,35.08
2023-07-22T06:55:21.746Z,34.83
2023-07-22T06:57:51.045Z,36.60
2023-07-22T07:00:20.538Z,39.65
2023-07-22T07:02:48.525Z,37.50
2023-07-22T07:05:17.817Z,36.47
2023-07-22T07:07:45.517Z,37.50
2023-07-22T07:10:13.097Z,35.65
2023-07-22T07:12:40.709Z,36.45
2023-07-22T07:15:09.273Z,33.53
2023-07-22T07:17:36.962Z,39.70
2023-07-22T07:20:04.765Z,39.67
2023-07-22T07:22:32.336Z,34.72
2023-07-22T07:25:06.787Z,35.30
2023-07-22T07:27:34.272Z,33.65
2023-07-22T07:30:01.913Z,35.97
2023-07-22T07:32:32.003Z,33.33
2023-07-22T07:35:01.168Z,35.22
2023-07-22T07:37:28.775Z,41.30
2023-07-22T07:40:00.526Z,30.83
2023-07-22T07:42:31.712Z,33.28
2023-07-22T07:45:02.398Z,38.10
2023-07-22T07:47:30.117Z,37.25
2023-07-22T07:49:57.700Z,32.55
2023-07-22T07:52:25.305Z,32.85
2023-07-22T07:54:53.248Z,34.75
2023-07-22T07:57:21.216Z,31.33
2023-07-22T07:59:48.762Z,36.30
2023-07-22T08:02:16.339Z,32.78
2023-07-22T08:04:43.832Z,32.90
2023-07-22T08:07:11.761Z,34.17
2023-07-22T08:09:39.640Z,28.55
2023-07-22T08:12:07.376Z,25.40
2023-07-22T08:14:35.323Z,30.67
2023-07-22T08:17:03.011Z,30.38
2023-07-22T08:19:30.509Z,31.60
2023-07-22T08:21:59.516Z,28.15
2023-07-22T08:24:27.905Z,27.88
2023-07-22T08:26:55.859Z,30.98
2023-07-22T08:29:23.483Z,30.35
2023-07-22T08:31:51.379Z,35.45
2023-07-22T08:34:19.557Z,30.50
2023-07-22T08:36:47.212Z,23.67
2023-07-22T08:39:28.857Z,26.65
2023-07-22T08:41:58.455Z,27.38
2023-07-22T08:44:35.702Z,26.33
2023-07-22T08:47:07.068Z,25.45
2023-07-22T08:49:34.898Z,27.67
2023-07-22T08:52:05.604Z,29.20
2023-07-22T08:54:34.638Z,26.58
2023-07-22T08:57:02.530Z,26.05
2023-07-22T08:59:31.672Z,21.95
2023-07-22T09:01:59.686Z,20.63
2023-07-22T09:04:27.630Z,23.30
2023-07-22T09:06:57.327Z,24.67
2023-07-22T09:09:26.734Z,26.13
2023-07-22T09:11:56.298Z,25.10
2023-07-22T09:14:35.635Z,22.30
2023-07-22T09:17:05.740Z,20.25
2023-07-22T09:19:34.133Z,19.90
2023-07-22T09:22:05.571Z,18.65
2023-07-22T09:24:33.678Z,22.60
2023-07-22T09:27:02.144Z,25.58
2023-07-22T09:29:37.057Z,15.45
2023-07-22T09:32:05.037Z,22.33
2023-07-22T09:34:33.257Z,15.77
2023-07-22T09:37:05.348Z,15.90
2023-07-22T09:39:33.265Z,14.45
2023-07-22T09:42:02.938Z,21.38
2023-07-22T09:44:33.009Z,15.82
2023-07-22T09:47:00.662Z,14.75
2023-07-22T09:49:28.559Z,15.88
2023-07-22T09:52:02.952Z,18.55
2023-07-22T09:54:32.772Z,13.82
2023-07-22T09:57:01.139Z,14.73
2023-07-22T09:59:32.026Z,18.88
2023-07-22T10:02:04.816Z,14.77
2023-07-22T10:04:38.960Z,14.10
2023-07-22T10:07:08.196Z,14.60
2023-07-22T10:09:38.032Z,16.25
2023-07-22T10:12:07.865Z,12.23
2023-07-22T10:14:38.404Z,11.97
2023-07-22T10:17:07.571Z,14.77
2023-07-22T10:19:35.718Z,13.98
2023-07-22T10:22:06.568Z,14.35
2023-07-22T10:24:39.093Z,13.55
2023-07-22T10:27:07.205Z,8.70
2023-07-22T10:29:37.268Z,9.48
2023-07-22T10:32:06.625Z,13.30
2023-07-22T10:34:34.381Z,8.63
2023-07-22T10:37:04.685Z,11.90
2023-07-22T10:39:32.345Z,9.48
2023-07-22T10:42:02.252Z,10.30
2023-07-22T10:44:33.271Z,12.02
2023-07-22T10:47:00.921Z,10.48
2023-07-22T10:49:30.298Z,10.48
2023-07-22T10:51:59.389Z,12.43
2023-07-22T10:54:35.241Z,10.68
2023-07-22T10:57:25.556Z,16.27
2023-07-22T10:59:53.768Z,12.35
2023-07-22T11:02:26.569Z,10.82
2023-07-22T11:05:02.990Z,15.80
2023-07-22T11:07:36.163Z,9.60
2023-07-22T11:10:15.936Z,12.38
2023-07-22T11:12:45.411Z,11.70
2023-07-22T11:15:13.065Z,11.88
2023-07-22T11:17:40.890Z,13.95
2023-07-22T11:20:12.473Z,11.93
2023-07-22T11:22:45.062Z,11.10
2023-07-22T11:25:19.044Z,10.70
2023-07-22T11:27:47.475Z,12.40
2023-07-22T11:30:15.476Z,8.30
2023-07-22T11:33:17.260Z,10.40
2023-07-22T11:35:45.399Z,6.78
2023-07-22T11:38:16.884Z,7.63
2023-07-22T11:40:44.492Z,6.13
2023-07-22T11:43:16.180Z,9.38
2023-07-22T11:45:43.885Z,5.40
2023-07-22T11:48:13.256Z,8.43
2023-07-22T11:50:40.851Z,5.68
2023-07-22T11:53:09.099Z,7.88
2023-07-22T11:55:38.540Z,7.10
2023-07-22T11:58:08.522Z,6.75
2023-07-22T12:00:36.479Z,6.90
2023-07-22T12:03:07.907Z,7.88
2023-07-22T12:05:38.872Z,6.03
2023-07-22T12:08:07.848Z,8.02
2023-07-22T12:10:35.669Z,5.18
2023-07-22T12:13:03.932Z,6.57
2023-07-22T12:15:31.779Z,5.07
2023-07-22T12:18:01.941Z,4.57
2023-07-22T12:20:30.648Z,7.68
2023-07-22T12:22:58.827Z,5.75
2023-07-22T12:25:26.618Z,5.50
2023-07-22T12:27:54.256Z,4.35
2023-07-22T12:30:22.510Z,7.38
2023-07-22T12:32:50.664Z,16.85
2023-07-22T12:35:18.375Z,6.78
2023-07-22T12:37:46.203Z,4.72
2023-07-22T12:40:14.100Z,4.82
2023-07-22T12:42:42.248Z,5.97
2023-07-22T12:45:10.276Z,5.47
2023-07-22T12:48:11.140Z,7.70
2023-07-22T12:50:39.320Z,5.85
2023-07-22T12:53:06.943Z,7.32
2023-07-22T12:55:34.489Z,5.30
2023-07-22T12:58:01.948Z,5.30
2023-07-22T13:00:30.191Z,5.45
2023-07-22T13:02:58.742Z,6.82
2023-07-22T13:05:26.729Z,4.35
2023-07-22T13:07:54.742Z,8.63
2023-07-22T13:10:24.039Z,9.80
2023-07-22T13:12:51.682Z,7.90
2023-07-22T13:15:19.348Z,10.95
2023-07-22T13:17:47.248Z,10.68
2023-07-22T13:20:16.333Z,3.80
2023-07-22T13:22:44.913Z,109.68
2023-07-22T13:25:12.570Z,11.50
2023-07-22T13:27:41.768Z,4.75
2023-07-22T13:30:09.823Z,3.83
2023-07-22T13:32:38.780Z,9.23
2023-07-22T13:35:09.279Z,4.03
2023-07-22T13:37:37.026Z,5.82
2023-07-22T13:40:10.697Z,6.38
2023-07-22T13:42:39.266Z,7.95
2023-07-22T13:45:07.373Z,4.55
2023-07-22T13:47:35.197Z,4.93
2023-07-22T13:50:02.683Z,10.70
2023-07-22T13:52:30.320Z,6.20
2023-07-22T13:54:57.960Z,7.15
2023-07-22T13:57:25.605Z,6.72
2023-07-22T13:59:53.819Z,8.27
2023-07-22T14:02:21.628Z,10.60
2023-07-22T14:04:49.714Z,6.35
2023-07-22T14:07:18.648Z,9.63
2023-07-22T14:09:46.410Z,4.75
2023-07-22T14:12:14.447Z,5.40
2023-07-22T14:14:42.194Z,6.13
2023-07-22T14:17:26.857Z,9.25
2023-07-22T14:19:54.874Z,3.85
2023-07-22T14:25:05.780Z,4.93
2023-07-22T14:27:33.537Z,3.80
2023-07-22T14:30:01.425Z,7.47
2023-07-22T14:32:29.062Z,7.38
2023-07-22T14:34:56.564Z,7.72
2023-07-22T14:37:24.494Z,6.72
2023-07-22T14:39:52.386Z,6.32
2023-07-22T14:42:19.887Z,15.90
2023-07-22T14:44:47.557Z,8.70
2023-07-22T14:47:15.141Z,8.00
2023-07-22T14:49:42.676Z,8.77
2023-07-22T14:52:10.729Z,9.65
2023-07-22T14:54:38.430Z,7.57
2023-07-22T14:57:06.326Z,12.48
2023-07-22T14:59:37.935Z,7.85
2023-07-22T15:02:05.848Z,10.98
2023-07-22T15:04:36.465Z,8.30
2023-07-22T15:07:06.204Z,9.23
2023-07-22T15:09:33.854Z,11.20
2023-07-22T15:12:01.684Z,6.63
2023-07-22T15:14:29.122Z,6.68
2023-07-22T15:16:56.895Z,8.70
2023-07-22T15:19:24.918Z,8.35
2023-07-22T15:21:52.749Z,8.43
2023-07-22T15:24:20.936Z,7.78
2023-07-22T15:26:48.543Z,7.00
2023-07-22T15:29:16.213Z,10.80
2023-07-22T15:31:47.293Z,10.55
2023-07-22T15:34:14.918Z,10.02
2023-07-22T15:36:42.881Z,7.38
2023-07-22T15:39:10.783Z,7.32
2023-07-22T15:41:38.583Z,9.00
2023-07-22T15:44:07.345Z,8.32
2023-07-22T15:46:38.465Z,8.25
2023-07-22T15:49:06.713Z,10.27
2023-07-22T15:51:34.420Z,7.70
2023-07-22T15:54:02.077Z,4.40
2023-07-22T15:56:30.028Z,6.15
2023-07-22T15:58:57.740Z,5.93
2023-07-22T16:01:25.638Z,6.97
2023-07-22T16:03:53.913Z,4.50
2023-07-22T16:06:31.881Z,5.72
2023-07-22T16:09:00.797Z,8.98
2023-07-22T16:11:29.491Z,9.70
2023-07-22T16:13:59.126Z,4.95
2023-07-22T16:16:26.813Z,7.80
2023-07-22T16:18:54.820Z,6.07
2023-07-22T16:21:22.516Z,7.47
2023-07-22T16:23:50.208Z,8.07
2023-07-22T16:26:18.020Z,4.05
2023-07-22T16:28:46.093Z,7.10
2023-07-22T16:31:24.845Z,6.82
2023-07-22T16:33:52.647Z,9.45
2023-07-22T16:36:21.589Z,6.82
2023-07-22T16:38:49.663Z,10.18
2023-07-22T16:41:19.204Z,5.97
2023-07-22T16:43:47.116Z,8.02
2023-07-22T16:46:14.689Z,7.82
2023-07-22T16:48:42.536Z,13.88
2023-07-22T16:51:10.660Z,8.15
2023-07-22T16:53:38.894Z,7.20
2023-07-22T16:56:06.837Z,8.02
2023-07-22T16:58:35.529Z,9.68
2023-07-22T17:01:03.299Z,11.15
2023-07-22T17:03:31.456Z,11.77
2023-07-22T17:05:59.057Z,9.02
2023-07-22T17:08:26.974Z,10.77
2023-07-22T17:10:55.640Z,8.75
2023-07-22T17:13:23.668Z,9.70
2023-07-22T17:15:51.797Z,8.13
2023-07-22T17:18:19.517Z,6.80
2023-07-22T17:20:47.434Z,10.05
2023-07-22T17:23:15.159Z,12.63
2023-07-22T17:25:42.712Z,8.05
2023-07-22T17:28:10.711Z,4.43
2023-07-22T17:30:38.188Z,9.15
2023-07-22T17:33:08.845Z,9.48
2023-07-22T17:35:37.813Z,8.57
2023-07-22T17:38:05.651Z,4.85
2023-07-22T17:40:33.449Z,5.25
2023-07-22T17:43:01.269Z,9.00
2023-07-22T17:45:29.499Z,7.22
2023-07-22T17:48:06.196Z,7.75
2023-07-22T17:50:34.116Z,5.95
2023-07-22T17:53:01.757Z,8.60
2023-07-22T17:55:35.193Z,6.90
2023-07-22T17:58:03.124Z,14.02
2023-07-22T18:00:30.727Z,6.78
2023-07-22T18:03:06.967Z,6.00
2023-07-22T18:05:35.196Z,7.53
2023-07-22T18:08:03.223Z,13.20
2023-07-22T18:10:30.757Z,11.25
2023-07-22T18:12:58.515Z,6.03
2023-07-22T18:16:01.652Z,4.03
2023-07-22T18:18:31.084Z,5.93
2023-07-22T18:20:58.855Z,5.47
2023-07-22T18:23:26.822Z,13.98
2023-07-22T18:25:54.834Z,7.63
2023-07-22T18:28:22.862Z,8.10
2023-07-22T18:30:52.991Z,7.60
2023-07-22T18:33:20.826Z,7.07
2023-07-22T18:35:51.248Z,10.95
2023-07-22T18:40:46.862Z,9.65
2023-07-22T18:43:14.506Z,12.52
2023-07-22T18:45:44.516Z,9.55
2023-07-22T18:48:12.052Z,8.98
2023-07-22T18:50:39.968Z,12.50
2023-07-22T18:53:07.625Z,6.85
2023-07-22T18:55:37.289Z,9.15
2023-07-22T18:58:05.458Z,6.10
2023-07-22T19:00:33.407Z,7.10
2023-07-22T19:03:01.508Z,8.45
2023-07-22T19:05:32.921Z,12.75
2023-07-22T19:08:04.606Z,9.90
2023-07-22T19:10:32.610Z,9.80
2023-07-22T19:13:00.489Z,12.18
2023-07-22T19:15:28.979Z,6.75
2023-07-22T19:18:01.436Z,6.57
2023-07-22T19:20:29.496Z,7.90
2023-07-22T19:23:01.775Z,6.07
2023-07-22T19:25:29.750Z,9.73
2023-07-22T19:28:01.688Z,12.38
2023-07-22T19:30:29.252Z,9.50
2023-07-22T19:32:57.244Z,9.50
2023-07-22T19:35:30.285Z,9.25
2023-07-22T19:37:57.840Z,8.90
2023-07-22T19:40:30.153Z,6.60
2023-07-22T19:42:57.799Z,8.35
2023-07-22T19:45:26.496Z,9.50
2023-07-22T19:47:54.901Z,10.07
2023-07-22T19:50:24.911Z,11.05
2023-07-22T19:52:52.744Z,8.93
2023-07-22T19:55:20.775Z,7.50
2023-07-22T19:57:48.483Z,7.78
2023-07-22T20:00:16.182Z,10.23
2023-07-22T20:02:47.244Z,6.53
2023-07-22T20:05:15.606Z,10.02
2023-07-22T20:07:43.636Z,7.70
2023-07-22T20:10:12.733Z,9.52
2023-07-22T20:12:40.746Z,9.93
2023-07-22T20:15:09.207Z,9.93
2023-07-22T20:17:37.319Z,9.43
2023-07-22T20:20:05.041Z,5.93
2023-07-22T20:23:05.397Z,11.25
2023-07-22T20:25:42.454Z,8.15
2023-07-22T20:28:10.386Z,8.45
2023-07-22T20:30:42.386Z,10.07
2023-07-22T20:33:10.549Z,10.15
2023-07-22T20:35:39.002Z,9.60
2023-07-22T20:38:06.854Z,8.23
2023-07-22T20:40:34.796Z,10.70
2023-07-22T20:43:02.714Z,9.25
2023-07-22T20:45:32.332Z,12.00
2023-07-22T20:48:00.260Z,8.18
2023-07-22T20:50:28.537Z,11.90
2023-07-22T20:52:56.618Z,8.10
2023-07-22T20:55:24.540Z,9.07
2023-07-22T20:57:52.159Z,11.48
2023-07-22T21:00:20.278Z,10.18
2023-07-22T21:02:48.052Z,8.55
2023-07-22T21:05:16.270Z,8.93
2023-07-22T21:07:44.082Z,10.80
2023-07-22T21:10:13.668Z,15.25
2023-07-22T21:12:44.086Z,14.20
2023-07-22T21:15:12.062Z,11.43
2023-07-22T21:17:39.827Z,12.68
2023-07-22T21:20:07.842Z,9.93
2023-07-22T21:22:38.481Z,10.10
2023-07-22T21:25:06.600Z,11.55
2023-07-22T21:27:47.301Z,10.77
2023-07-22T21:30:16.323Z,7.75
2023-07-22T21:32:44.902Z,12.95
2023-07-22T21:35:12.874Z,12.80
2023-07-22T21:37:40.952Z,9.27
2023-07-22T21:40:09.146Z,10.27
2023-07-22T21:42:37.069Z,11.88
2023-07-22T21:45:06.582Z,9.45
2023-07-22T21:47:34.412Z,9.73
2023-07-22T21:50:02.270Z,8.85
2023-07-22T21:52:29.638Z,11.20
2023-07-22T21:54:57.652Z,13.85
2023-07-22T21:57:25.557Z,12.18
2023-07-22T21:59:59.143Z,10.43
2023-07-22T22:02:27.031Z,10.25
2023-07-22T22:04:55.872Z,13.90
2023-07-22T22:07:23.847Z,9.90
2023-07-22T22:09:51.657Z,9.68
2023-07-22T22:12:20.270Z,14.75
2023-07-22T22:14:48.227Z,11.10
2023-07-22T22:17:16.197Z,9.88
2023-07-22T22:19:47.033Z,9.57
2023-07-22T22:22:14.619Z,12.77
2023-07-22T22:24:43.971Z,11.13
2023-07-22T22:27:13.712Z,11.20
2023-07-22T22:29:41.892Z,12.53
2023-07-22T22:32:20.181Z,12.65
2023-07-22T22:34:47.910Z,15.88
2023-07-22T22:37:16.388Z,8.88
2023-07-22T22:39:44.323Z,10.90
2023-07-22T22:42:14.252Z,13.38
2023-07-22T22:44:42.196Z,11.20
2023-07-22T22:47:17.429Z,12.80
2023-07-22T22:49:44.966Z,10.23
2023-07-22T22:52:12.682Z,10.80
2023-07-22T22:54:40.201Z,12.55
2023-07-22T22:57:15.993Z,10.82
2023-07-22T22:59:43.882Z,11.48
2023-07-22T23:02:11.501Z,11.00
2023-07-22T23:04:40.162Z,12.35
2023-07-22T23:07:08.223Z,11.73
2023-07-22T23:09:36.137Z,14.50
2023-07-22T23:12:04.175Z,12.20
2023-07-22T23:14:33.881Z,10.00
2023-07-22T23:17:01.512Z,13.88
2023-07-22T23:19:28.964Z,15.23
2023-07-22T23:21:56.966Z,9.85
2023-07-22T23:24:25.236Z,13.75
2023-07-22T23:26:53.138Z,12.35
2023-07-22T23:29:21.010Z,14.70
2023-07-22T23:32:02.418Z,16.13
2023-07-22T23:34:32.723Z,15.57
2023-07-22T23:37:00.296Z,12.88
2023-07-22T23:39:27.732Z,13.30
2023-07-22T23:41:55.185Z,14.25
2023-07-22T23:44:22.929Z,12.35
2023-07-22T23:46:50.445Z,14.75
2023-07-22T23:49:17.953Z,12.73
2023-07-22T23:51:48.602Z,14.82
2023-07-22T23:54:16.999Z,17.73
2023-07-22T23:56:45.253Z,15.82
2023-07-22T23:59:13.297Z,15.02
